CW2939 Malaga ES current weather conditions

sailwx.info

Wind from 322 at 13 knots gusting 19

Air temperature 13.3° C
Dewpoint 8.0° C

Last reported at 2019-Jan-24 10:09 UTC.
Time now 2019-Jan-24 10:41 UTC

Location: N 36°52' W 004°09'.
View on Google Maps.

See reports from other nearby stations

  
Tides and Currents Weather Stations Pressure Air Temp Water Temp Dewpoint Dewpoint Depression Visibility Wind Speed Wind Dir Waves Ship Positions
date/time (UTC)wind fromknots sea level pressurealtimeterstation pressurevisibilityair tempwater tempwave heightnotes
2019-Jan-24 10:09 322 13 gusting 19 13.3
2019-Jan-24 10:04 320 13 gusting 19 13.3
2019-Jan-24 09:59 317 14 gusting 22 13.3
2019-Jan-24 09:49 325 13 gusting 19 13.3
2019-Jan-24 09:44 310 13 gusting 19 12.8
2019-Jan-24 09:39 311 13 gusting 19 12.8
2019-Jan-24 09:29 317 12 gusting 17 12.8
2019-Jan-24 09:24 320 12 gusting 17 12.8
2019-Jan-24 09:19 319 12 gusting 17 12.8
2019-Jan-24 09:14 319 13 gusting 20 12.8
2019-Jan-24 09:09 318 11 gusting 17 12.8
2019-Jan-24 09:04 329 13 gusting 19 12.8
2019-Jan-24 08:54 313 13 gusting 20 12.8
2019-Jan-24 08:49 320 19 gusting 25 12.8
2019-Jan-24 08:44 322 11 gusting 18 12.8
2019-Jan-24 08:39 324 12 gusting 19 12.8
2019-Jan-24 08:34 318 15 gusting 21 12.8
2019-Jan-24 08:29 306 17 gusting 21 12.8
2019-Jan-24 08:24 317 14 gusting 21 12.8
2019-Jan-24 08:19 311 13 gusting 21 12.8
2019-Jan-24 08:14 323 13 gusting 18 12.8
2019-Jan-24 08:09 316 13 gusting 19 12.8
2019-Jan-24 07:59 306 13 gusting 19 12.8
2019-Jan-24 07:54 319 14 gusting 20 12.8
2019-Jan-24 07:49 319 11 gusting 22 12.8
2019-Jan-24 07:44 314 15 gusting 26 12.8
2019-Jan-24 07:29 318 14 gusting 22 12.8
2019-Jan-24 07:19 319 15 gusting 19 12.8
2019-Jan-24 07:14 311 12 gusting 19 12.8
2019-Jan-24 07:09 318 12 gusting 19 12.8
2019-Jan-24 07:04 322 12 gusting 19 12.8
2019-Jan-24 06:59 313 13 gusting 19 12.8
2019-Jan-24 06:54 320 15 gusting 22 12.8
2019-Jan-24 06:39 316 14 gusting 19 12.8
2019-Jan-24 06:34 310 13 gusting 19 12.8
2019-Jan-24 06:29 307 15 gusting 20 12.8
2019-Jan-24 06:19 317 13 gusting 19 12.8
2019-Jan-24 06:14 305 14 gusting 20 12.8
2019-Jan-24 06:09 304 11 gusting 18 12.8
2019-Jan-24 05:54 320 10 gusting 20 12.8
2019-Jan-24 05:49 335 10 gusting 15 12.8
2019-Jan-24 05:44 324 8 gusting 17 12.8
2019-Jan-24 05:40 313 12 gusting 17 12.8
2019-Jan-24 05:34 332 11 gusting 20 12.8
2019-Jan-24 05:29 315 13 gusting 21 12.8
2019-Jan-24 05:19 322 12 gusting 17 12.8
2019-Jan-24 05:14 315 11 gusting 14 12.8
2019-Jan-24 05:09 318 10 gusting 17 12.8
2019-Jan-24 05:04 326 13 gusting 17 12.8
2019-Jan-24 04:49 312 10 gusting 14 12.8
2019-Jan-24 04:44 327 14 gusting 18 12.8
2019-Jan-24 04:39 326 10 gusting 14 12.8
2019-Jan-24 04:34 343 9 gusting 18 12.8
2019-Jan-24 04:29 325 11 gusting 18 12.8
2019-Jan-24 04:24 321 12 gusting 18 12.8
2019-Jan-24 04:19 318 13 gusting 19 12.8
2019-Jan-24 04:14 319 12 gusting 17 12.8
2019-Jan-24 04:09 324 12 gusting 20 12.8
2019-Jan-24 04:04 327 12 gusting 19 12.8
2019-Jan-24 03:59 328 16 gusting 22 12.8
2019-Jan-24 03:54 321 13 gusting 19 12.8
2019-Jan-24 03:49 315 13 gusting 21 12.8
2019-Jan-24 03:39 323 13 gusting 19 12.8
2019-Jan-24 03:34 313 13 gusting 22 12.8
2019-Jan-24 03:29 307 15 gusting 24 12.8
2019-Jan-24 03:19 316 15 gusting 22 12.8
2019-Jan-24 03:14 323 10 gusting 15 12.8
2019-Jan-24 03:04 332 12 gusting 20 12.8
2019-Jan-24 02:59 330 12 gusting 17 12.8
2019-Jan-24 02:54 324 10 gusting 14 12.8
2019-Jan-24 02:44 338 10 gusting 14 12.8
2019-Jan-24 02:39 336 9 gusting 14 12.8
2019-Jan-24 02:29 306 11 gusting 17 12.8
2019-Jan-24 02:14 303 9 gusting 14 12.8
2019-Jan-24 02:09 322 11 gusting 18 12.8
2019-Jan-24 02:04 308 11 gusting 21 12.8
2019-Jan-24 01:59 305 11 gusting 15 12.8
2019-Jan-24 01:49 308 12 gusting 19 12.8
2019-Jan-24 01:34 319 15 gusting 22 13.3
2019-Jan-24 01:29 309 9 gusting 17 13.3
2019-Jan-24 01:24 323 13 gusting 22 13.3
2019-Jan-24 01:19 323 13 gusting 20 13.3
2019-Jan-24 01:14 313 12 gusting 19 13.3
2019-Jan-24 00:59 309 15 gusting 21 13.3
2019-Jan-24 00:44 315 8 gusting 14 13.3
2019-Jan-24 00:39 308 12 gusting 21 13.3
2019-Jan-24 00:34 332 15 gusting 22 13.3
2019-Jan-24 00:29 321 10 gusting 17 13.3
2019-Jan-24 00:19 319 11 gusting 17 13.3
2019-Jan-24 00:14 315 8 gusting 15 13.3
2019-Jan-24 00:09 320 12 gusting 18 13.3
2019-Jan-24 00:04 314 10 gusting 15 13.3
2019-Jan-23 23:59 318 13 gusting 20 13.3
2019-Jan-23 23:54 326 10 gusting 18 13.3
2019-Jan-23 23:49 321 10 gusting 15 13.3
2019-Jan-23 23:44 316 11 gusting 13 13.3
2019-Jan-23 23:19 334 13 gusting 22 13.3
2019-Jan-23 23:14 315 14 gusting 24 13.3
2019-Jan-23 23:09 317 12 gusting 19 13.3
2019-Jan-23 22:59 328 7 gusting 14 13.3
2019-Jan-23 22:54 311 12 gusting 20 13.3
2019-Jan-23 22:44 320 14 gusting 19 13.3
2019-Jan-23 22:39 311 14 gusting 26 13.3
2019-Jan-23 22:24 317 13 gusting 21 13.3
2019-Jan-23 22:19 315 17 gusting 22 13.3
2019-Jan-23 22:14 321 12 gusting 20 13.3
2019-Jan-23 22:09 314 15 gusting 22 13.3
2019-Jan-23 22:04 318 17 gusting 27 13.3
2019-Jan-23 21:59 314 18 gusting 26 13.3
2019-Jan-23 21:54 317 18 gusting 26 13.3
2019-Jan-23 21:49 308 17 gusting 27 13.3
2019-Jan-23 21:39 320 14 gusting 24 13.3
2019-Jan-23 21:34 321 20 gusting 27 13.3
2019-Jan-23 21:29 319 21 gusting 30 13.3
2019-Jan-23 21:24 310 15 gusting 22 13.3
2019-Jan-23 21:19 318 14 gusting 25 13.3
2019-Jan-23 21:09 320 17 gusting 26 13.3
2019-Jan-23 20:59 325 11 gusting 19 13.3
2019-Jan-23 20:39 318 11 gusting 17 13.3
2019-Jan-23 20:34 331 11 gusting 17 13.3
2019-Jan-23 20:24 319 10 gusting 19 13.3
2019-Jan-23 20:19 326 12 gusting 17 13.3
2019-Jan-23 20:14 321 10 gusting 19 13.3
2019-Jan-23 20:09 326 13 gusting 21 13.3
2019-Jan-23 20:04 319 13 gusting 19 13.3
2019-Jan-23 19:39 315 13 gusting 21 13.3
2019-Jan-23 19:29 316 13 gusting 25 13.9
2019-Jan-23 19:24 312 18 gusting 25 13.9
2019-Jan-23 19:19 310 17 gusting 30 13.9
2019-Jan-23 19:04 309 19 gusting 26 13.9
2019-Jan-23 18:59 305 17 gusting 28 13.9
2019-Jan-23 18:49 298 15 gusting 22 13.3
2019-Jan-23 18:44 311 17 gusting 22 13.3
2019-Jan-23 18:39 316 15 gusting 21 13.3
2019-Jan-23 18:34 309 13 gusting 19 13.9
2019-Jan-23 18:29 312 13 gusting 19 13.9
2019-Jan-23 18:24 322 16 gusting 26 13.9
2019-Jan-23 18:14 312 18 gusting 22 13.9
2019-Jan-23 18:09 314 16 gusting 22 13.9
2019-Jan-23 18:04 315 19 gusting 26 13.9
2019-Jan-23 17:59 314 17 gusting 30 13.9
2019-Jan-23 17:49 317 22 gusting 30 13.9
2019-Jan-23 17:29 315 15 gusting 22 13.9
2019-Jan-23 17:19 314 13 gusting 22 13.9
2019-Jan-23 17:09 321 20 gusting 32 13.9
2019-Jan-23 17:04 316 14 gusting 22 13.9
2019-Jan-23 16:59 327 19 gusting 25 13.9
2019-Jan-23 16:54 312 22 gusting 33 13.9
2019-Jan-23 16:44 313 17 gusting 26 13.3
2019-Jan-23 16:39 320 19 gusting 30 13.3
2019-Jan-23 16:34 314 20 gusting 30 13.3
2019-Jan-23 16:29 321 20 gusting 32 13.3
2019-Jan-23 16:19 317 21 gusting 31 13.9
2019-Jan-23 16:09 331 26 gusting 35 13.9
2019-Jan-23 16:04 317 24 gusting 33 13.9
2019-Jan-23 15:59 321 22 gusting 33 13.9
2019-Jan-23 15:54 320 21 gusting 33 13.9
2019-Jan-23 15:49 321 21 gusting 30 13.9
2019-Jan-23 15:39 329 27 gusting 42 13.9
2019-Jan-23 15:34 326 26 gusting 39 13.9
2019-Jan-23 15:29 318 24 gusting 39 13.9
2019-Jan-23 15:24 325 26 gusting 39 13.9
2019-Jan-23 15:19 319 26 gusting 39 13.9
2019-Jan-23 15:14 319 25 gusting 37 13.9
2019-Jan-23 15:09 323 23 gusting 33 13.9
2019-Jan-23 15:04 324 25 gusting 37 13.9
2019-Jan-23 14:59 317 26 gusting 39 13.9
2019-Jan-23 14:44 314 29 gusting 39 13.3
2019-Jan-23 14:39 321 29 gusting 41 13.3
2019-Jan-23 14:34 326 29 gusting 42 13.3
2019-Jan-23 14:29 310 26 gusting 39 13.3
2019-Jan-23 14:24 318 27 gusting 39 13.9
2019-Jan-23 14:19 322 25 gusting 38 13.9
2019-Jan-23 14:09 325 26 gusting 38 13.3
2019-Jan-23 14:04 319 25 gusting 33 13.3
2019-Jan-23 13:59 317 27 gusting 38 13.3
2019-Jan-23 13:49 317 22 gusting 33 13.9
2019-Jan-23 13:39 315 26 gusting 35 13.3
2019-Jan-23 13:34 312 25 gusting 32 13.9
2019-Jan-23 13:29 314 23 gusting 32 13.9
2019-Jan-23 13:24 329 23 gusting 33 13.9
2019-Jan-23 13:14 326 24 gusting 35 13.9
2019-Jan-23 12:59 315 21 gusting 32 13.3
2019-Jan-23 12:54 324 25 gusting 37 13.3
2019-Jan-23 12:49 311 20 gusting 31 13.3
2019-Jan-23 12:39 323 22 gusting 33 12.8
2019-Jan-23 12:34 325 24 gusting 33 12.8
2019-Jan-23 12:24 322 22 gusting 30 11.7
2019-Jan-23 12:09 324 24 gusting 37 11.7
2019-Jan-23 12:04 323 18 gusting 28 11.7
2019-Jan-23 11:59 318 22 gusting 33 11.7
2019-Jan-23 11:54 325 19 gusting 30 11.1
2019-Jan-23 11:49 328 20 gusting 30 11.1
2019-Jan-23 11:44 314 19 gusting 32 11.1
2019-Jan-23 11:34 328 14 gusting 20 11.1
2019-Jan-23 11:29 319 18 gusting 26 11.1
2019-Jan-23 11:24 326 19 gusting 26 11.1
2019-Jan-23 11:19 319 17 gusting 22 11.1
2019-Jan-23 11:14 315 18 gusting 26 10.6
2019-Jan-23 11:09 322 18 gusting 30 10.6
2019-Jan-23 11:04 335 17 gusting 27 10.6
2019-Jan-23 10:59 310 19 gusting 28 10.6
2019-Jan-23 10:54 323 18 gusting 28 10.6
2019-Jan-23 10:49 318 18 gusting 24 10.6
2019-Jan-23 10:44 317 18 gusting 26 10.6
2019-Jan-23 10:39 316 18 gusting 26 10.6
2019-Jan-23 10:29 314 17 gusting 24 10.6
2019-Jan-23 10:09 318 18 gusting 25 10.6
2019-Jan-23 09:59 320 17 gusting 26 10.6
2019-Jan-23 09:49 306 20 gusting 26 10.6
2019-Jan-23 09:39 312 18 gusting 26 10.6
2019-Jan-23 09:34 321 17 gusting 22 10.6
2019-Jan-23 09:29 317 18 gusting 25 10.6
2019-Jan-23 09:24 324 14 gusting 20 10.6
2019-Jan-23 09:19 327 13 gusting 20 10.6
2019-Jan-23 09:09 330 14 gusting 21 10.6
2019-Jan-23 09:04 320 15 gusting 22 10.6
2019-Jan-23 08:54 319 13 gusting 19 10.6
2019-Jan-23 08:49 320 15 gusting 22 10.0
2019-Jan-23 08:44 318 17 gusting 25 10.6
2019-Jan-23 08:39 322 19 gusting 26 10.6
2019-Jan-23 08:24 319 15 gusting 21 10.6
2019-Jan-23 08:19 321 16 gusting 21 10.6
2019-Jan-23 08:14 320 14 gusting 22 10.6
2019-Jan-23 08:04 331 17 gusting 25 10.0
2019-Jan-23 07:59 319 14 gusting 22 10.0
2019-Jan-23 07:49 320 13 gusting 21 10.0
2019-Jan-23 07:44 315 15 gusting 25 10.0
2019-Jan-23 07:39 326 17 gusting 25 10.0
2019-Jan-23 07:34 333 18 gusting 24 10.0
2019-Jan-23 07:04 312 20 gusting 28 10.0
2019-Jan-23 06:54 321 19 gusting 30 10.0
2019-Jan-23 06:49 333 19 gusting 26 10.0
2019-Jan-23 06:44 317 19 gusting 30 10.0
2019-Jan-23 06:34 316 22 gusting 28 10.6
2019-Jan-23 06:24 314 23 gusting 31 10.6
2019-Jan-23 06:19 317 26 gusting 33 10.6
2019-Jan-23 06:14 318 21 gusting 30 10.6
2019-Jan-23 06:09 315 21 gusting 33 10.6
2019-Jan-23 05:49 323 17 gusting 22 10.6
2019-Jan-23 05:44 330 19 gusting 30 10.6
2019-Jan-23 05:34 320 22 gusting 31 10.6
2019-Jan-23 05:24 320 23 gusting 37 10.6
2019-Jan-23 05:19 319 19 gusting 30 10.6
2019-Jan-23 05:09 312 22 gusting 32 10.6
2019-Jan-23 05:04 316 21 gusting 27 10.6
2019-Jan-23 04:59 325 20 gusting 33 10.6
2019-Jan-23 04:54 319 21 gusting 33 10.6
2019-Jan-23 04:49 315 22 gusting 30 10.6
2019-Jan-23 04:44 315 19 gusting 28 10.6
2019-Jan-23 04:34 312 22 gusting 33 10.6
2019-Jan-23 04:29 325 16 gusting 22 10.6
2019-Jan-23 04:24 321 19 gusting 26 10.6
2019-Jan-23 04:14 312 19 gusting 30 10.6
2019-Jan-23 03:59 314 20 gusting 32 11.1
2019-Jan-23 03:54 318 20 gusting 30 11.1
2019-Jan-23 03:39 309 18 gusting 26 11.1
2019-Jan-23 03:34 315 20 gusting 30 11.1
2019-Jan-23 03:29 305 23 gusting 33 11.1
2019-Jan-23 03:19 321 21 gusting 30 11.1
2019-Jan-23 03:14 301 22 gusting 30 11.1
2019-Jan-23 03:04 325 18 gusting 22 11.1
2019-Jan-23 02:59 315 18 gusting 26 11.1
2019-Jan-23 02:54 307 18 gusting 25 11.1
2019-Jan-23 02:49 320 14 gusting 22 11.1
2019-Jan-23 02:39 278 18 gusting 27 11.1
2019-Jan-23 02:34 291 18 gusting 25 11.1
2019-Jan-23 02:29 311 19 gusting 26 11.1
2019-Jan-23 02:24 303 15 gusting 22 11.1
2019-Jan-23 02:19 300 18 gusting 25 11.1
2019-Jan-23 02:14 317 17 gusting 22 11.1
2019-Jan-23 01:54 302 12 gusting 18 11.1
2019-Jan-23 01:49 308 14 gusting 18 11.1
2019-Jan-23 01:44 307 15 gusting 22 11.1
2019-Jan-23 01:39 317 13 gusting 18 11.1
2019-Jan-23 01:34 311 11 gusting 17 11.7
2019-Jan-23 01:29 308 13 gusting 18 11.1
2019-Jan-23 01:24 318 13 gusting 19 11.7
2019-Jan-23 01:19 315 13 gusting 17 11.7
2019-Jan-23 01:14 322 12 gusting 17 11.7
2019-Jan-23 01:09 314 13 gusting 21 11.7
2019-Jan-23 00:59 312 13 gusting 22 11.1
2019-Jan-23 00:39 297 17 gusting 22 11.1
2019-Jan-23 00:34 292 15 gusting 22 11.1
2019-Jan-23 00:09 293 12 gusting 17 11.1
2019-Jan-22 23:59 310 9 gusting 18 10.6
2019-Jan-22 23:54 299 12 gusting 18 10.6
2019-Jan-22 23:49 292 12 gusting 19 10.6
2019-Jan-22 23:44 310 8 gusting 14 10.6
2019-Jan-22 23:29 288 15 gusting 24 10.6
2019-Jan-22 23:24 294 15 gusting 26 10.6
2019-Jan-22 23:14 297 13 gusting 17 11.1
2019-Jan-22 23:09 302 8 gusting 13 11.1
2019-Jan-22 23:04 339 11 gusting 19 11.1
2019-Jan-22 22:49 333 11 gusting 15 11.1
2019-Jan-22 22:44 302 8 gusting 12 11.1
2019-Jan-22 22:34 337 10 gusting 14 10.6
2019-Jan-22 22:24 315 11 gusting 14 10.6
2019-Jan-22 22:14 307 8 gusting 13 10.6
2019-Jan-22 22:09 311 8 gusting 15 10.6
2019-Jan-22 21:59 288 10 gusting 19 10.6
2019-Jan-22 21:54 290 12 gusting 18 10.6
2019-Jan-22 21:49 285 13 gusting 18 10.6
2019-Jan-22 21:44 293 10 gusting 17 10.6
2019-Jan-22 21:39 289 13 gusting 20 10.6
2019-Jan-22 21:29 292 17 gusting 21 11.1
2019-Jan-22 21:24 302 11 gusting 19 10.6
2019-Jan-22 21:19 295 11 gusting 15 10.6
2019-Jan-22 21:14 304 13 gusting 17 10.6
2019-Jan-22 21:09 300 11 gusting 17 10.6
2019-Jan-22 21:04 293 13 gusting 17 11.1
2019-Jan-22 20:59 300 18 gusting 21 10.6
2019-Jan-22 20:54 305 13 gusting 17 10.6
2019-Jan-22 20:49 307 13 gusting 19 10.6
2019-Jan-22 20:44 307 11 gusting 14 10.6
2019-Jan-22 20:39 299 13 gusting 19 10.6
2019-Jan-22 20:24 284 14 gusting 19 10.6
2019-Jan-22 20:09 306 13 gusting 19 10.6
2019-Jan-22 19:59 314 9 gusting 17 10.6
2019-Jan-22 19:54 323 11 gusting 17 10.6
2019-Jan-22 19:49 312 11 gusting 15 10.6
2019-Jan-22 19:44 304 12 gusting 17 10.6
2019-Jan-22 19:39 310 14 gusting 21 10.6
2019-Jan-22 19:34 309 13 gusting 21 10.6
2019-Jan-22 19:29 299 12 gusting 20 10.6
2019-Jan-22 19:24 297 18 gusting 24 10.6
2019-Jan-22 19:14 301 13 gusting 20 10.6
2019-Jan-22 19:04 306 13 gusting 19 10.6
2019-Jan-22 18:54 314 14 gusting 20 10.6
2019-Jan-22 18:49 299 14 gusting 20 10.6
2019-Jan-22 18:39 302 14 gusting 19 10.6
2019-Jan-22 18:34 308 13 gusting 17 10.6
2019-Jan-22 18:24 320 13 gusting 19 10.6
2019-Jan-22 18:19 313 11 gusting 19 10.6
2019-Jan-22 18:14 312 14 gusting 22 10.6
2019-Jan-22 18:04 319 16 gusting 26 10.6
2019-Jan-22 17:59 321 18 gusting 26 10.6
2019-Jan-22 17:54 316 17 gusting 22 10.6
2019-Jan-22 17:49 328 19 gusting 28 10.6
2019-Jan-22 17:44 319 17 gusting 26 10.6
2019-Jan-22 17:34 314 22 gusting 30 10.6
2019-Jan-22 17:29 308 17 gusting 25 10.6
2019-Jan-22 17:24 314 19 gusting 30 10.6
2019-Jan-22 17:19 325 24 gusting 32 10.6
2019-Jan-22 17:14 312 18 gusting 27 10.6
2019-Jan-22 17:09 316 17 gusting 26 10.6
2019-Jan-22 17:04 316 21 gusting 30 10.6
2019-Jan-22 16:59 311 19 gusting 30 11.1
2019-Jan-22 16:54 314 19 gusting 26 11.1
2019-Jan-22 16:34 314 19 gusting 26 11.1
2019-Jan-22 16:19 316 19 gusting 28 11.1
2019-Jan-22 16:04 314 19 gusting 25 11.7
2019-Jan-22 15:59 300 24 gusting 31 11.7
2019-Jan-22 15:54 323 18 gusting 26 11.7
2019-Jan-22 15:44 312 14 gusting 22 12.2
2019-Jan-22 15:39 315 16 gusting 22 12.2
2019-Jan-22 15:34 311 21 gusting 33 12.2
2019-Jan-22 15:19 302 21 gusting 27 12.2
2019-Jan-22 15:09 305 23 gusting 30 12.2
2019-Jan-22 14:59 317 18 gusting 28 12.8
2019-Jan-22 14:49 306 18 gusting 26 12.8
2019-Jan-22 14:44 302 17 gusting 25 12.8
2019-Jan-22 14:39 309 18 gusting 24 12.8
2019-Jan-22 14:29 304 17 gusting 24 12.8
2019-Jan-22 14:24 313 14 gusting 26 12.8
2019-Jan-22 14:19 311 16 gusting 22 13.3
2019-Jan-22 14:14 308 15 gusting 20 13.3
2019-Jan-22 14:09 302 12 gusting 15 13.3
2019-Jan-22 14:04 304 12 gusting 19 13.9
2019-Jan-22 13:49 293 14 gusting 20 13.3
2019-Jan-22 13:44 306 15 gusting 21 13.3
2019-Jan-22 13:39 307 14 gusting 19 13.3
2019-Jan-22 13:34 293 11 gusting 17 13.3
2019-Jan-22 13:24 319 11 gusting 17 13.3
2019-Jan-22 13:14 330 13 gusting 21 13.3
2019-Jan-22 13:09 328 13 gusting 21 13.3
2019-Jan-22 13:04 316 13 gusting 22 13.3
2019-Jan-22 12:59 322 14 gusting 24 13.3
2019-Jan-22 12:54 313 14 gusting 22 13.3
2019-Jan-22 12:44 310 19 gusting 24 13.3
2019-Jan-22 12:34 316 19 gusting 26 13.3
2019-Jan-22 12:29 320 17 gusting 24 13.3
2019-Jan-22 12:19 328 18 gusting 25 13.3
2019-Jan-22 12:14 322 19 gusting 28 13.3
2019-Jan-22 12:04 333 15 gusting 24 13.9
2019-Jan-22 11:59 344 13 gusting 22 13.9
2019-Jan-22 11:54 338 11 gusting 17 13.9
2019-Jan-22 11:44 329 11 gusting 18 13.9
2019-Jan-22 11:39 338 10 gusting 14 13.9
2019-Jan-22 11:34 336 10 gusting 17 13.9
2019-Jan-22 11:29 317 13 gusting 20 13.9
2019-Jan-22 11:24 316 12 gusting 22 13.3
2019-Jan-22 11:14 316 11 gusting 18 12.8
2019-Jan-22 11:04 313 12 gusting 18 12.2
2019-Jan-22 10:59 318 15 gusting 27 12.2
2019-Jan-22 10:49 319 15 gusting 26 12.8
2019-Jan-22 10:39 318 19 gusting 27 12.2
2019-Jan-22 10:34 313 13 gusting 20 12.2
2019-Jan-22 10:29 308 15 gusting 26 12.2
2019-Jan-22 10:19 318 14 gusting 20 12.8
2019-Jan-22 10:14 309 11 gusting 19 12.8
2019-Jan-22 10:09 308 13 gusting 18 12.2
2019-Jan-22 10:04 310 11 gusting 17 11.7